sensor_id;sensor_type;location;lat;lon;timestamp;P1;durP1;ratioP1;P2;durP2;ratioP2
22205;SDS011;11272;50.104;8.754;2022-07-10T00:01:20;6.90;;;2.23;;
22205;SDS011;11272;50.104;8.754;2022-07-10T00:03:45;4.97;;;2.53;;
22205;SDS011;11272;50.104;8.754;2022-07-10T00:06:10;4.67;;;2.30;;
22205;SDS011;11272;50.104;8.754;2022-07-10T00:08:36;3.63;;;2.20;;
22205;SDS011;11272;50.104;8.754;2022-07-10T00:11:02;6.13;;;2.40;;
22205;SDS011;11272;50.104;8.754;2022-07-10T00:13:28;3.27;;;2.40;;
22205;SDS011;11272;50.104;8.754;2022-07-10T00:15:53;5.37;;;2.43;;
22205;SDS011;11272;50.104;8.754;2022-07-10T00:18:18;5.07;;;2.20;;
22205;SDS011;11272;50.104;8.754;2022-07-10T00:20:45;5.53;;;2.00;;
22205;SDS011;11272;50.104;8.754;2022-07-10T00:23:11;7.10;;;2.40;;
22205;SDS011;11272;50.104;8.754;2022-07-10T00:25:36;3.33;;;2.10;;
22205;SDS011;11272;50.104;8.754;2022-07-10T00:28:02;5.73;;;2.10;;
22205;SDS011;11272;50.104;8.754;2022-07-10T00:30:27;5.83;;;2.20;;
22205;SDS011;11272;50.104;8.754;2022-07-10T00:32:53;6.93;;;2.50;;
22205;SDS011;11272;50.104;8.754;2022-07-10T00:35:20;7.33;;;1.97;;
22205;SDS011;11272;50.104;8.754;2022-07-10T00:37:45;6.23;;;2.37;;
22205;SDS011;11272;50.104;8.754;2022-07-10T00:40:11;4.87;;;1.90;;
22205;SDS011;11272;50.104;8.754;2022-07-10T00:42:37;5.03;;;2.07;;
22205;SDS011;11272;50.104;8.754;2022-07-10T00:45:02;3.57;;;1.90;;
22205;SDS011;11272;50.104;8.754;2022-07-10T00:47:28;2.77;;;1.93;;
22205;SDS011;11272;50.104;8.754;2022-07-10T00:49:54;2.57;;;1.83;;
22205;SDS011;11272;50.104;8.754;2022-07-10T00:52:19;3.00;;;1.90;;
22205;SDS011;11272;50.104;8.754;2022-07-10T00:54:46;4.07;;;1.97;;
22205;SDS011;11272;50.104;8.754;2022-07-10T00:57:15;5.37;;;1.70;;
22205;SDS011;11272;50.104;8.754;2022-07-10T00:59:41;3.33;;;1.70;;
22205;SDS011;11272;50.104;8.754;2022-07-10T01:02:08;8.13;;;2.10;;
22205;SDS011;11272;50.104;8.754;2022-07-10T01:04:34;4.40;;;1.90;;
22205;SDS011;11272;50.104;8.754;2022-07-10T01:06:59;6.30;;;1.90;;
22205;SDS011;11272;50.104;8.754;2022-07-10T01:09:28;4.07;;;1.60;;
22205;SDS011;11272;50.104;8.754;2022-07-10T01:11:55;5.07;;;1.73;;
22205;SDS011;11272;50.104;8.754;2022-07-10T01:14:21;4.63;;;1.57;;
22205;SDS011;11272;50.104;8.754;2022-07-10T01:16:47;4.53;;;1.30;;
22205;SDS011;11272;50.104;8.754;2022-07-10T01:19:13;4.87;;;1.90;;
22205;SDS011;11272;50.104;8.754;2022-07-10T01:21:39;5.70;;;1.57;;
22205;SDS011;11272;50.104;8.754;2022-07-10T01:24:08;4.43;;;1.50;;
22205;SDS011;11272;50.104;8.754;2022-07-10T01:26:35;2.40;;;1.50;;
22205;SDS011;11272;50.104;8.754;2022-07-10T01:29:05;4.17;;;1.60;;
22205;SDS011;11272;50.104;8.754;2022-07-10T01:31:31;5.93;;;1.80;;
22205;SDS011;11272;50.104;8.754;2022-07-10T01:33:58;6.67;;;1.50;;
22205;SDS011;11272;50.104;8.754;2022-07-10T01:36:24;3.70;;;1.50;;
22205;SDS011;11272;50.104;8.754;2022-07-10T01:38:52;5.57;;;1.80;;
22205;SDS011;11272;50.104;8.754;2022-07-10T01:41:18;3.20;;;1.37;;
22205;SDS011;11272;50.104;8.754;2022-07-10T01:43:44;3.83;;;1.27;;
22205;SDS011;11272;50.104;8.754;2022-07-10T01:46:10;5.20;;;1.30;;
22205;SDS011;11272;50.104;8.754;2022-07-10T01:48:37;5.70;;;1.70;;
22205;SDS011;11272;50.104;8.754;2022-07-10T01:51:07;3.20;;;1.20;;
22205;SDS011;11272;50.104;8.754;2022-07-10T01:53:33;4.57;;;1.30;;
22205;SDS011;11272;50.104;8.754;2022-07-10T01:56:00;4.03;;;1.47;;
22205;SDS011;11272;50.104;8.754;2022-07-10T01:58:28;4.03;;;1.30;;
22205;SDS011;11272;50.104;8.754;2022-07-10T02:00:53;3.63;;;1.33;;
22205;SDS011;11272;50.104;8.754;2022-07-10T02:03:19;5.73;;;1.13;;
22205;SDS011;11272;50.104;8.754;2022-07-10T02:06:02;7.23;;;1.67;;
22205;SDS011;11272;50.104;8.754;2022-07-10T02:08:28;5.40;;;1.53;;
22205;SDS011;11272;50.104;8.754;2022-07-10T02:10:53;2.50;;;1.37;;
22205;SDS011;11272;50.104;8.754;2022-07-10T02:13:19;4.03;;;1.37;;
22205;SDS011;11272;50.104;8.754;2022-07-10T02:15:46;4.27;;;1.47;;
22205;SDS011;11272;50.104;8.754;2022-07-10T02:18:14;3.63;;;1.30;;
22205;SDS011;11272;50.104;8.754;2022-07-10T02:20:40;6.10;;;1.27;;
22205;SDS011;11272;50.104;8.754;2022-07-10T02:23:05;4.60;;;1.97;;
22205;SDS011;11272;50.104;8.754;2022-07-10T02:25:32;6.00;;;1.70;;
22205;SDS011;11272;50.104;8.754;2022-07-10T02:27:58;5.23;;;1.37;;
22205;SDS011;11272;50.104;8.754;2022-07-10T02:30:23;4.13;;;1.40;;
22205;SDS011;11272;50.104;8.754;2022-07-10T02:32:49;5.40;;;1.40;;
22205;SDS011;11272;50.104;8.754;2022-07-10T02:35:14;4.77;;;1.70;;
22205;SDS011;11272;50.104;8.754;2022-07-10T02:37:40;4.73;;;1.37;;
22205;SDS011;11272;50.104;8.754;2022-07-10T02:40:05;5.70;;;1.40;;
22205;SDS011;11272;50.104;8.754;2022-07-10T02:42:31;5.73;;;1.60;;
22205;SDS011;11272;50.104;8.754;2022-07-10T02:44:57;4.77;;;1.53;;
22205;SDS011;11272;50.104;8.754;2022-07-10T02:47:22;2.73;;;1.60;;
22205;SDS011;11272;50.104;8.754;2022-07-10T02:49:47;3.10;;;1.10;;
22205;SDS011;11272;50.104;8.754;2022-07-10T02:52:13;6.27;;;2.00;;
22205;SDS011;11272;50.104;8.754;2022-07-10T02:54:39;5.93;;;1.53;;
22205;SDS011;11272;50.104;8.754;2022-07-10T02:57:04;3.97;;;1.30;;
22205;SDS011;11272;50.104;8.754;2022-07-10T02:59:30;4.90;;;1.40;;
22205;SDS011;11272;50.104;8.754;2022-07-10T03:01:55;2.97;;;1.20;;
22205;SDS011;11272;50.104;8.754;2022-07-10T03:04:21;5.07;;;1.57;;
22205;SDS011;11272;50.104;8.754;2022-07-10T03:06:46;2.67;;;1.27;;
22205;SDS011;11272;50.104;8.754;2022-07-10T03:09:11;5.63;;;1.40;;
22205;SDS011;11272;50.104;8.754;2022-07-10T03:11:37;5.83;;;1.17;;
22205;SDS011;11272;50.104;8.754;2022-07-10T03:14:02;4.23;;;1.27;;
22205;SDS011;11272;50.104;8.754;2022-07-10T03:16:28;6.37;;;1.30;;
22205;SDS011;11272;50.104;8.754;2022-07-10T03:18:53;2.73;;;1.40;;
22205;SDS011;11272;50.104;8.754;2022-07-10T03:21:18;1.87;;;1.23;;
22205;SDS011;11272;50.104;8.754;2022-07-10T03:23:44;3.30;;;1.30;;
22205;SDS011;11272;50.104;8.754;2022-07-10T03:26:09;4.40;;;1.30;;
22205;SDS011;11272;50.104;8.754;2022-07-10T03:28:34;3.37;;;1.30;;
22205;SDS011;11272;50.104;8.754;2022-07-10T03:31:00;4.13;;;1.43;;
22205;SDS011;11272;50.104;8.754;2022-07-10T03:33:27;4.00;;;1.20;;
22205;SDS011;11272;50.104;8.754;2022-07-10T03:35:52;3.50;;;1.40;;
22205;SDS011;11272;50.104;8.754;2022-07-10T03:38:18;4.83;;;1.60;;
22205;SDS011;11272;50.104;8.754;2022-07-10T03:40:43;3.50;;;1.20;;
22205;SDS011;11272;50.104;8.754;2022-07-10T03:43:12;3.10;;;1.50;;
22205;SDS011;11272;50.104;8.754;2022-07-10T03:45:38;1.53;;;1.27;;
22205;SDS011;11272;50.104;8.754;2022-07-10T03:48:03;4.57;;;1.50;;
22205;SDS011;11272;50.104;8.754;2022-07-10T03:50:29;4.83;;;1.33;;
22205;SDS011;11272;50.104;8.754;2022-07-10T03:52:54;2.93;;;1.37;;
22205;SDS011;11272;50.104;8.754;2022-07-10T03:55:20;3.90;;;1.40;;
22205;SDS011;11272;50.104;8.754;2022-07-10T03:57:45;4.17;;;1.30;;
22205;SDS011;11272;50.104;8.754;2022-07-10T04:00:25;6.67;;;1.60;;
22205;SDS011;11272;50.104;8.754;2022-07-10T04:03:03;5.23;;;1.20;;
22205;SDS011;11272;50.104;8.754;2022-07-10T04:05:30;5.27;;;1.33;;
22205;SDS011;11272;50.104;8.754;2022-07-10T04:07:57;3.10;;;1.03;;
22205;SDS011;11272;50.104;8.754;2022-07-10T04:10:24;4.00;;;1.37;;
22205;SDS011;11272;50.104;8.754;2022-07-10T04:12:50;1.83;;;1.00;;
22205;SDS011;11272;50.104;8.754;2022-07-10T04:15:16;7.93;;;1.60;;
22205;SDS011;11272;50.104;8.754;2022-07-10T04:17:42;2.73;;;1.00;;
22205;SDS011;11272;50.104;8.754;2022-07-10T04:20:08;2.37;;;1.33;;
22205;SDS011;11272;50.104;8.754;2022-07-10T04:22:34;2.93;;;1.10;;
22205;SDS011;11272;50.104;8.754;2022-07-10T04:25:00;5.07;;;1.33;;
22205;SDS011;11272;50.104;8.754;2022-07-10T04:27:26;6.07;;;1.37;;
22205;SDS011;11272;50.104;8.754;2022-07-10T04:29:51;2.67;;;1.30;;
22205;SDS011;11272;50.104;8.754;2022-07-10T04:32:17;2.10;;;1.40;;
22205;SDS011;11272;50.104;8.754;2022-07-10T04:34:42;2.63;;;1.00;;
22205;SDS011;11272;50.104;8.754;2022-07-10T04:37:08;3.93;;;1.07;;
22205;SDS011;11272;50.104;8.754;2022-07-10T04:39:34;6.10;;;1.37;;
22205;SDS011;11272;50.104;8.754;2022-07-10T04:42:00;3.47;;;1.67;;
22205;SDS011;11272;50.104;8.754;2022-07-10T04:44:26;2.83;;;1.10;;
22205;SDS011;11272;50.104;8.754;2022-07-10T04:46:51;2.53;;;1.07;;
22205;SDS011;11272;50.104;8.754;2022-07-10T04:49:18;6.03;;;1.27;;
22205;SDS011;11272;50.104;8.754;2022-07-10T04:51:44;7.20;;;1.00;;
22205;SDS011;11272;50.104;8.754;2022-07-10T04:54:10;1.60;;;0.90;;
22205;SDS011;11272;50.104;8.754;2022-07-10T04:56:35;3.83;;;1.10;;
22205;SDS011;11272;50.104;8.754;2022-07-10T04:59:01;2.57;;;0.97;;
22205;SDS011;11272;50.104;8.754;2022-07-10T05:01:27;4.27;;;0.90;;
22205;SDS011;11272;50.104;8.754;2022-07-10T05:03:52;3.70;;;0.90;;
22205;SDS011;11272;50.104;8.754;2022-07-10T05:06:18;4.43;;;1.00;;
22205;SDS011;11272;50.104;8.754;2022-07-10T05:08:43;3.60;;;0.80;;
22205;SDS011;11272;50.104;8.754;2022-07-10T05:11:09;1.63;;;0.80;;
22205;SDS011;11272;50.104;8.754;2022-07-10T05:13:34;2.20;;;1.20;;
22205;SDS011;11272;50.104;8.754;2022-07-10T05:16:00;3.37;;;0.90;;
22205;SDS011;11272;50.104;8.754;2022-07-10T05:18:27;3.30;;;0.80;;
22205;SDS011;11272;50.104;8.754;2022-07-10T05:20:53;3.47;;;0.83;;
22205;SDS011;11272;50.104;8.754;2022-07-10T05:23:19;2.93;;;1.10;;
22205;SDS011;11272;50.104;8.754;2022-07-10T05:25:45;4.00;;;0.80;;
22205;SDS011;11272;50.104;8.754;2022-07-10T05:28:10;1.33;;;0.60;;
22205;SDS011;11272;50.104;8.754;2022-07-10T05:30:39;4.80;;;1.00;;
22205;SDS011;11272;50.104;8.754;2022-07-10T05:33:05;4.10;;;1.00;;
22205;SDS011;11272;50.104;8.754;2022-07-10T05:35:30;3.60;;;0.87;;
22205;SDS011;11272;50.104;8.754;2022-07-10T05:37:56;0.80;;;0.50;;
22205;SDS011;11272;50.104;8.754;2022-07-10T05:40:22;1.83;;;0.73;;
22205;SDS011;11272;50.104;8.754;2022-07-10T05:42:48;3.83;;;0.80;;
22205;SDS011;11272;50.104;8.754;2022-07-10T05:45:13;1.97;;;0.60;;
22205;SDS011;11272;50.104;8.754;2022-07-10T05:47:39;3.83;;;0.87;;
22205;SDS011;11272;50.104;8.754;2022-07-10T05:50:04;3.23;;;0.83;;
22205;SDS011;11272;50.104;8.754;2022-07-10T05:52:30;7.30;;;0.80;;
22205;SDS011;11272;50.104;8.754;2022-07-10T05:54:56;2.13;;;0.90;;
22205;SDS011;11272;50.104;8.754;2022-07-10T05:57:22;2.67;;;0.77;;
22205;SDS011;11272;50.104;8.754;2022-07-10T05:59:48;3.00;;;0.70;;
22205;SDS011;11272;50.104;8.754;2022-07-10T06:02:14;2.43;;;0.80;;
22205;SDS011;11272;50.104;8.754;2022-07-10T06:04:40;4.40;;;0.80;;
22205;SDS011;11272;50.104;8.754;2022-07-10T06:07:05;1.90;;;0.70;;
22205;SDS011;11272;50.104;8.754;2022-07-10T06:09:30;2.70;;;1.00;;
22205;SDS011;11272;50.104;8.754;2022-07-10T06:11:56;3.83;;;0.93;;
22205;SDS011;11272;50.104;8.754;2022-07-10T06:14:21;2.27;;;0.83;;
22205;SDS011;11272;50.104;8.754;2022-07-10T06:16:47;5.33;;;0.93;;
22205;SDS011;11272;50.104;8.754;2022-07-10T06:19:12;4.03;;;0.97;;
22205;SDS011;11272;50.104;8.754;2022-07-10T06:21:38;3.87;;;0.83;;
22205;SDS011;11272;50.104;8.754;2022-07-10T06:24:04;2.73;;;1.23;;
22205;SDS011;11272;50.104;8.754;2022-07-10T06:26:29;2.17;;;0.60;;
22205;SDS011;11272;50.104;8.754;2022-07-10T06:28:54;2.23;;;0.80;;
22205;SDS011;11272;50.104;8.754;2022-07-10T06:31:20;3.03;;;0.90;;
22205;SDS011;11272;50.104;8.754;2022-07-10T06:33:46;2.30;;;0.63;;
22205;SDS011;11272;50.104;8.754;2022-07-10T06:36:11;2.00;;;0.70;;
22205;SDS011;11272;50.104;8.754;2022-07-10T06:38:37;2.47;;;0.63;;
22205;SDS011;11272;50.104;8.754;2022-07-10T06:41:03;2.37;;;0.67;;
22205;SDS011;11272;50.104;8.754;2022-07-10T06:43:28;2.60;;;0.60;;
22205;SDS011;11272;50.104;8.754;2022-07-10T06:45:55;1.90;;;1.00;;
22205;SDS011;11272;50.104;8.754;2022-07-10T06:48:22;2.60;;;0.73;;
22205;SDS011;11272;50.104;8.754;2022-07-10T06:50:47;2.87;;;0.90;;
22205;SDS011;11272;50.104;8.754;2022-07-10T06:53:13;3.10;;;0.80;;
22205;SDS011;11272;50.104;8.754;2022-07-10T06:55:38;2.87;;;0.60;;
22205;SDS011;11272;50.104;8.754;2022-07-10T06:58:04;3.40;;;0.50;;
22205;SDS011;11272;50.104;8.754;2022-07-10T07:00:29;4.17;;;0.70;;
22205;SDS011;11272;50.104;8.754;2022-07-10T07:02:55;4.53;;;0.90;;
22205;SDS011;11272;50.104;8.754;2022-07-10T07:05:21;4.67;;;0.97;;
22205;SDS011;11272;50.104;8.754;2022-07-10T07:07:46;3.43;;;0.60;;
22205;SDS011;11272;50.104;8.754;2022-07-10T07:10:12;1.73;;;0.70;;
22205;SDS011;11272;50.104;8.754;2022-07-10T07:12:38;3.50;;;0.90;;
22205;SDS011;11272;50.104;8.754;2022-07-10T07:15:04;4.07;;;0.70;;
22205;SDS011;11272;50.104;8.754;2022-07-10T07:17:31;2.73;;;0.67;;
22205;SDS011;11272;50.104;8.754;2022-07-10T07:20:10;3.57;;;0.80;;
22205;SDS011;11272;50.104;8.754;2022-07-10T07:23:15;2.17;;;0.50;;
22205;SDS011;11272;50.104;8.754;2022-07-10T07:25:41;1.33;;;0.57;;
22205;SDS011;11272;50.104;8.754;2022-07-10T07:28:11;3.93;;;0.70;;
22205;SDS011;11272;50.104;8.754;2022-07-10T07:30:40;2.73;;;0.70;;
22205;SDS011;11272;50.104;8.754;2022-07-10T07:33:06;2.17;;;0.70;;
22205;SDS011;11272;50.104;8.754;2022-07-10T07:35:31;2.93;;;0.57;;
22205;SDS011;11272;50.104;8.754;2022-07-10T07:37:57;3.20;;;0.60;;
22205;SDS011;11272;50.104;8.754;2022-07-10T07:40:23;1.77;;;0.60;;
22205;SDS011;11272;50.104;8.754;2022-07-10T07:42:52;3.37;;;0.80;;
22205;SDS011;11272;50.104;8.754;2022-07-10T07:45:18;2.83;;;0.60;;
22205;SDS011;11272;50.104;8.754;2022-07-10T07:50:15;5.17;;;0.70;;
22205;SDS011;11272;50.104;8.754;2022-07-10T07:52:47;4.57;;;0.83;;
22205;SDS011;11272;50.104;8.754;2022-07-10T07:55:15;2.87;;;0.60;;
22205;SDS011;11272;50.104;8.754;2022-07-10T07:57:44;5.07;;;0.80;;
22205;SDS011;11272;50.104;8.754;2022-07-10T08:00:11;1.47;;;0.60;;
22205;SDS011;11272;50.104;8.754;2022-07-10T08:02:38;3.03;;;0.60;;
22205;SDS011;11272;50.104;8.754;2022-07-10T08:05:04;2.37;;;0.67;;
22205;SDS011;11272;50.104;8.754;2022-07-10T08:07:34;4.27;;;0.90;;
22205;SDS011;11272;50.104;8.754;2022-07-10T08:10:00;3.00;;;1.03;;
22205;SDS011;11272;50.104;8.754;2022-07-10T08:12:26;2.50;;;0.70;;
22205;SDS011;11272;50.104;8.754;2022-07-10T08:14:52;2.23;;;0.77;;
22205;SDS011;11272;50.104;8.754;2022-07-10T08:17:17;1.27;;;0.63;;
22205;SDS011;11272;50.104;8.754;2022-07-10T08:19:42;3.40;;;0.77;;
22205;SDS011;11272;50.104;8.754;2022-07-10T08:22:08;3.53;;;0.60;;
22205;SDS011;11272;50.104;8.754;2022-07-10T08:24:33;2.73;;;0.60;;
22205;SDS011;11272;50.104;8.754;2022-07-10T08:26:59;3.60;;;0.87;;
22205;SDS011;11272;50.104;8.754;2022-07-10T08:29:25;2.53;;;0.60;;
22205;SDS011;11272;50.104;8.754;2022-07-10T08:31:50;3.77;;;0.90;;
22205;SDS011;11272;50.104;8.754;2022-07-10T08:34:16;2.90;;;0.80;;
22205;SDS011;11272;50.104;8.754;2022-07-10T08:36:41;3.60;;;0.90;;
22205;SDS011;11272;50.104;8.754;2022-07-10T08:39:06;3.27;;;0.63;;
22205;SDS011;11272;50.104;8.754;2022-07-10T08:41:32;2.37;;;0.57;;
22205;SDS011;11272;50.104;8.754;2022-07-10T08:44:01;1.90;;;0.63;;
22205;SDS011;11272;50.104;8.754;2022-07-10T08:46:27;2.43;;;0.70;;
22205;SDS011;11272;50.104;8.754;2022-07-10T08:48:55;2.70;;;0.70;;
22205;SDS011;11272;50.104;8.754;2022-07-10T08:51:40;1.73;;;0.70;;
22205;SDS011;11272;50.104;8.754;2022-07-10T08:54:10;2.27;;;0.70;;
22205;SDS011;11272;50.104;8.754;2022-07-10T08:56:39;1.73;;;0.67;;
22205;SDS011;11272;50.104;8.754;2022-07-10T08:59:06;4.93;;;0.90;;
22205;SDS011;11272;50.104;8.754;2022-07-10T09:01:33;2.63;;;0.80;;
22205;SDS011;11272;50.104;8.754;2022-07-10T09:03:59;3.07;;;0.53;;
22205;SDS011;11272;50.104;8.754;2022-07-10T09:06:25;3.17;;;0.93;;
22205;SDS011;11272;50.104;8.754;2022-07-10T09:11:27;2.73;;;0.90;;
22205;SDS011;11272;50.104;8.754;2022-07-10T09:13:56;1.80;;;0.77;;
22205;SDS011;11272;50.104;8.754;2022-07-10T09:16:29;3.00;;;1.30;;
22205;SDS011;11272;50.104;8.754;2022-07-10T09:18:56;1.77;;;0.83;;
22205;SDS011;11272;50.104;8.754;2022-07-10T09:21:40;2.73;;;1.03;;
22205;SDS011;11272;50.104;8.754;2022-07-10T09:24:09;3.30;;;1.00;;
22205;SDS011;11272;50.104;8.754;2022-07-10T09:26:36;1.47;;;0.80;;
22205;SDS011;11272;50.104;8.754;2022-07-10T09:29:08;4.03;;;1.23;;
22205;SDS011;11272;50.104;8.754;2022-07-10T09:31:48;3.10;;;0.63;;
22205;SDS011;11272;50.104;8.754;2022-07-10T09:34:13;3.77;;;0.80;;
22205;SDS011;11272;50.104;8.754;2022-07-10T09:36:38;1.53;;;0.67;;
22205;SDS011;11272;50.104;8.754;2022-07-10T09:39:04;2.10;;;0.97;;
22205;SDS011;11272;50.104;8.754;2022-07-10T09:41:30;2.47;;;0.80;;
22205;SDS011;11272;50.104;8.754;2022-07-10T09:44:00;2.77;;;1.10;;
22205;SDS011;11272;50.104;8.754;2022-07-10T09:46:38;2.60;;;1.07;;
22205;SDS011;11272;50.104;8.754;2022-07-10T09:49:07;2.47;;;0.80;;
22205;SDS011;11272;50.104;8.754;2022-07-10T09:51:38;1.70;;;0.77;;
22205;SDS011;11272;50.104;8.754;2022-07-10T09:54:07;4.22;;;1.00;;
22205;SDS011;11272;50.104;8.754;2022-07-10T09:56:38;5.95;;;1.60;;
22205;SDS011;11272;50.104;8.754;2022-07-10T09:59:08;2.22;;;1.17;;
22205;SDS011;11272;50.104;8.754;2022-07-10T10:01:40;2.47;;;1.10;;
22205;SDS011;11272;50.104;8.754;2022-07-10T10:04:08;5.45;;;0.98;;
22205;SDS011;11272;50.104;8.754;2022-07-10T10:06:36;2.27;;;1.30;;
22205;SDS011;11272;50.104;8.754;2022-07-10T10:09:24;4.27;;;1.47;;
22205;SDS011;11272;50.104;8.754;2022-07-10T10:11:57;3.70;;;1.07;;
22205;SDS011;11272;50.104;8.754;2022-07-10T10:14:28;2.53;;;1.10;;
22205;SDS011;11272;50.104;8.754;2022-07-10T10:16:56;2.90;;;1.23;;
22205;SDS011;11272;50.104;8.754;2022-07-10T10:19:24;7.30;;;1.00;;
22205;SDS011;11272;50.104;8.754;2022-07-10T10:22:11;2.83;;;0.90;;
22205;SDS011;11272;50.104;8.754;2022-07-10T10:24:37;4.65;;;1.05;;
22205;SDS011;11272;50.104;8.754;2022-07-10T10:27:05;2.85;;;1.00;;
22205;SDS011;11272;50.104;8.754;2022-07-10T10:29:32;3.28;;;1.08;;
22205;SDS011;11272;50.104;8.754;2022-07-10T10:32:01;2.63;;;1.10;;
22205;SDS011;11272;50.104;8.754;2022-07-10T10:39:59;3.83;;;1.20;;
22205;SDS011;11272;50.104;8.754;2022-07-10T10:42:58;2.38;;;1.15;;
22205;SDS011;11272;50.104;8.754;2022-07-10T10:48:09;2.97;;;1.08;;
22205;SDS011;11272;50.104;8.754;2022-07-10T10:50:37;3.03;;;1.00;;
22205;SDS011;11272;50.104;8.754;2022-07-10T10:58:28;2.97;;;1.30;;
22205;SDS011;11272;50.104;8.754;2022-07-10T11:01:03;4.20;;;1.50;;
22205;SDS011;11272;50.104;8.754;2022-07-10T11:06:49;3.72;;;1.15;;
22205;SDS011;11272;50.104;8.754;2022-07-10T11:09:27;4.88;;;0.90;;
22205;SDS011;11272;50.104;8.754;2022-07-10T11:11:57;2.60;;;1.10;;
22205;SDS011;11272;50.104;8.754;2022-07-10T11:14:37;2.72;;;1.02;;
22205;SDS011;11272;50.104;8.754;2022-07-10T11:17:05;3.83;;;1.40;;
22205;SDS011;11272;50.104;8.754;2022-07-10T11:19:32;4.95;;;1.30;;
22205;SDS011;11272;50.104;8.754;2022-07-10T11:22:03;1.98;;;1.10;;
22205;SDS011;11272;50.104;8.754;2022-07-10T11:27:34;3.38;;;1.27;;
22205;SDS011;11272;50.104;8.754;2022-07-10T11:30:14;2.65;;;1.40;;
22205;SDS011;11272;50.104;8.754;2022-07-10T11:32:40;5.07;;;1.10;;
22205;SDS011;11272;50.104;8.754;2022-07-10T11:35:06;2.63;;;1.23;;
22205;SDS011;11272;50.104;8.754;2022-07-10T11:37:39;3.63;;;0.90;;
22205;SDS011;11272;50.104;8.754;2022-07-10T11:40:14;5.80;;;1.13;;
22205;SDS011;11272;50.104;8.754;2022-07-10T11:42:54;1.80;;;1.05;;
22205;SDS011;11272;50.104;8.754;2022-07-10T11:45:27;3.13;;;1.15;;
22205;SDS011;11272;50.104;8.754;2022-07-10T11:47:54;2.67;;;1.02;;
22205;SDS011;11272;50.104;8.754;2022-07-10T11:50:21;4.20;;;1.20;;
22205;SDS011;11272;50.104;8.754;2022-07-10T11:52:46;6.30;;;1.00;;
22205;SDS011;11272;50.104;8.754;2022-07-10T11:55:17;4.68;;;1.50;;
22205;SDS011;11272;50.104;8.754;2022-07-10T11:57:43;3.42;;;1.00;;
22205;SDS011;11272;50.104;8.754;2022-07-10T12:00:27;2.55;;;1.00;;
22205;SDS011;11272;50.104;8.754;2022-07-10T12:02:55;2.00;;;0.80;;
22205;SDS011;11272;50.104;8.754;2022-07-10T12:05:31;6.28;;;1.17;;
22205;SDS011;11272;50.104;8.754;2022-07-10T12:07:58;3.28;;;1.08;;
22205;SDS011;11272;50.104;8.754;2022-07-10T12:10:27;2.90;;;1.05;;
22205;SDS011;11272;50.104;8.754;2022-07-10T12:12:53;2.38;;;0.80;;
22205;SDS011;11272;50.104;8.754;2022-07-10T12:15:41;3.97;;;0.95;;
22205;SDS011;11272;50.104;8.754;2022-07-10T12:18:14;6.15;;;1.08;;
22205;SDS011;11272;50.104;8.754;2022-07-10T12:20:48;4.05;;;1.30;;
22205;SDS011;11272;50.104;8.754;2022-07-10T12:23:18;3.80;;;0.98;;
22205;SDS011;11272;50.104;8.754;2022-07-10T12:25:45;6.78;;;1.20;;
22205;SDS011;11272;50.104;8.754;2022-07-10T12:28:14;6.25;;;1.08;;
22205;SDS011;11272;50.104;8.754;2022-07-10T12:30:44;3.65;;;1.20;;
22205;SDS011;11272;50.104;8.754;2022-07-10T12:33:12;5.78;;;1.70;;
22205;SDS011;11272;50.104;8.754;2022-07-10T12:38:15;1.88;;;1.00;;
22205;SDS011;11272;50.104;8.754;2022-07-10T12:40:41;5.97;;;1.33;;
22205;SDS011;11272;50.104;8.754;2022-07-10T12:43:07;2.03;;;1.00;;
22205;SDS011;11272;50.104;8.754;2022-07-10T12:45:32;3.35;;;1.20;;
22205;SDS011;11272;50.104;8.754;2022-07-10T12:47:58;4.35;;;0.93;;
22205;SDS011;11272;50.104;8.754;2022-07-10T12:50:23;3.22;;;1.20;;
22205;SDS011;11272;50.104;8.754;2022-07-10T12:53:06;2.42;;;1.15;;
22205;SDS011;11272;50.104;8.754;2022-07-10T12:55:36;2.78;;;1.00;;
22205;SDS011;11272;50.104;8.754;2022-07-10T12:58:06;2.72;;;1.08;;
22205;SDS011;11272;50.104;8.754;2022-07-10T13:00:43;2.50;;;0.90;;
22205;SDS011;11272;50.104;8.754;2022-07-10T13:03:11;2.80;;;1.05;;
22205;SDS011;11272;50.104;8.754;2022-07-10T13:05:43;3.00;;;1.00;;
22205;SDS011;11272;50.104;8.754;2022-07-10T13:08:13;1.20;;;0.80;;
22205;SDS011;11272;50.104;8.754;2022-07-10T13:10:49;2.72;;;0.93;;
22205;SDS011;11272;50.104;8.754;2022-07-10T13:13:16;4.28;;;1.17;;
22205;SDS011;11272;50.104;8.754;2022-07-10T13:15:43;4.50;;;1.40;;
22205;SDS011;11272;50.104;8.754;2022-07-10T13:18:20;3.97;;;1.07;;
22205;SDS011;11272;50.104;8.754;2022-07-10T13:20:47;3.43;;;1.20;;
22205;SDS011;11272;50.104;8.754;2022-07-10T13:23:15;3.13;;;1.08;;
22205;SDS011;11272;50.104;8.754;2022-07-10T13:25:41;3.47;;;1.00;;
22205;SDS011;11272;50.104;8.754;2022-07-10T13:28:07;4.17;;;1.70;;
22205;SDS011;11272;50.104;8.754;2022-07-10T13:30:37;4.20;;;1.10;;
22205;SDS011;11272;50.104;8.754;2022-07-10T13:33:03;3.88;;;0.95;;
22205;SDS011;11272;50.104;8.754;2022-07-10T13:35:31;2.90;;;1.00;;
22205;SDS011;11272;50.104;8.754;2022-07-10T13:37:59;4.63;;;1.60;;
22205;SDS011;11272;50.104;8.754;2022-07-10T13:40:30;2.83;;;1.20;;
22205;SDS011;11272;50.104;8.754;2022-07-10T13:42:57;5.20;;;1.40;;
22205;SDS011;11272;50.104;8.754;2022-07-10T13:45:23;5.60;;;1.17;;
22205;SDS011;11272;50.104;8.754;2022-07-10T13:47:55;3.57;;;1.50;;
22205;SDS011;11272;50.104;8.754;2022-07-10T13:50:21;4.50;;;1.50;;
22205;SDS011;11272;50.104;8.754;2022-07-10T13:52:47;2.50;;;1.47;;
22205;SDS011;11272;50.104;8.754;2022-07-10T13:55:13;3.30;;;1.40;;
22205;SDS011;11272;50.104;8.754;2022-07-10T13:57:38;2.70;;;1.30;;
22205;SDS011;11272;50.104;8.754;2022-07-10T14:00:06;2.70;;;1.40;;
22205;SDS011;11272;50.104;8.754;2022-07-10T14:02:37;7.03;;;2.20;;
22205;SDS011;11272;50.104;8.754;2022-07-10T14:05:03;4.40;;;1.40;;
22205;SDS011;11272;50.104;8.754;2022-07-10T14:07:28;3.77;;;1.73;;
22205;SDS011;11272;50.104;8.754;2022-07-10T14:09:54;5.47;;;2.63;;
22205;SDS011;11272;50.104;8.754;2022-07-10T14:12:19;3.03;;;1.40;;
22205;SDS011;11272;50.104;8.754;2022-07-10T14:14:46;5.37;;;1.40;;
22205;SDS011;11272;50.104;8.754;2022-07-10T14:17:11;1.03;;;0.70;;
22205;SDS011;11272;50.104;8.754;2022-07-10T14:19:37;2.33;;;0.87;;
22205;SDS011;11272;50.104;8.754;2022-07-10T14:22:03;4.67;;;0.90;;
22205;SDS011;11272;50.104;8.754;2022-07-10T14:24:28;8.00;;;0.90;;
22205;SDS011;11272;50.104;8.754;2022-07-10T14:26:54;1.20;;;0.77;;
22205;SDS011;11272;50.104;8.754;2022-07-10T14:29:20;3.07;;;0.80;;
22205;SDS011;11272;50.104;8.754;2022-07-10T14:31:45;2.13;;;0.80;;
22205;SDS011;11272;50.104;8.754;2022-07-10T14:34:14;2.93;;;0.80;;
22205;SDS011;11272;50.104;8.754;2022-07-10T14:36:40;1.80;;;1.00;;
22205;SDS011;11272;50.104;8.754;2022-07-10T14:39:05;3.00;;;0.70;;
22205;SDS011;11272;50.104;8.754;2022-07-10T14:41:31;2.53;;;0.80;;
22205;SDS011;11272;50.104;8.754;2022-07-10T14:43:56;1.60;;;1.00;;
22205;SDS011;11272;50.104;8.754;2022-07-10T14:46:23;3.43;;;0.90;;
22205;SDS011;11272;50.104;8.754;2022-07-10T14:48:49;2.67;;;0.77;;
22205;SDS011;11272;50.104;8.754;2022-07-10T14:51:15;4.13;;;0.90;;
22205;SDS011;11272;50.104;8.754;2022-07-10T14:53:41;5.83;;;0.80;;
22205;SDS011;11272;50.104;8.754;2022-07-10T14:56:08;4.83;;;1.10;;
22205;SDS011;11272;50.104;8.754;2022-07-10T14:58:33;5.63;;;0.90;;
22205;SDS011;11272;50.104;8.754;2022-07-10T15:00:59;2.10;;;0.80;;
22205;SDS011;11272;50.104;8.754;2022-07-10T15:03:25;1.93;;;0.80;;
22205;SDS011;11272;50.104;8.754;2022-07-10T15:05:51;6.93;;;0.93;;
22205;SDS011;11272;50.104;8.754;2022-07-10T15:08:20;7.03;;;0.90;;
22205;SDS011;11272;50.104;8.754;2022-07-10T15:10:46;4.90;;;1.07;;
22205;SDS011;11272;50.104;8.754;2022-07-10T15:13:13;0.90;;;0.70;;
22205;SDS011;11272;50.104;8.754;2022-07-10T15:15:39;1.00;;;0.70;;
22205;SDS011;11272;50.104;8.754;2022-07-10T15:18:05;2.20;;;0.80;;